Time;durP1;ratioP1;P1;durP2;ratioP2;P2;SDS_P1;SDS_P2;PMS_P1;PMS_P2;Temp;Humidity;BMP_temperature;BMP_pressure;BME280_temperature;BME280_humidity;BME280_pressure;Samples;Min_cycle;Max_cycle;Signal;HPM_P1;HPM_P2
2022/04/19 00:02:05;;;;;;;2.40;2.20;;;19.30;38.60;;;;;;5010032;28;20220;-73
2022/04/19 00:04:32;;;;;;;2.80;2.20;;;19.30;38.60;;;;;;4994253;28;20221;-73
2022/04/19 00:06:59;;;;;;;2.42;2.10;;;19.30;38.60;;;;;;5010098;28;20593;-73
2022/04/19 00:09:26;;;;;;;2.08;1.98;;;19.20;38.60;;;;;;5010090;28;20212;-73
2022/04/19 00:11:53;;;;;;;2.20;2.05;;;19.20;39.20;;;;;;5010366;28;20233;-73
2022/04/19 00:14:21;;;;;;;2.55;2.33;;;19.20;38.60;;;;;;4993812;28;20719;-73
2022/04/19 00:16:49;;;;;;;2.38;2.17;;;19.20;38.70;;;;;;5010009;28;20197;-73
2022/04/19 00:19:16;;;;;;;2.20;2.00;;;19.20;38.60;;;;;;5009809;28;20253;-73
2022/04/19 00:21:43;;;;;;;2.00;1.90;;;19.10;38.70;;;;;;5009681;28;20209;-73
2022/04/19 00:24:10;;;;;;;2.00;1.90;;;19.10;38.70;;;;;;4994745;28;20209;-73
2022/04/19 00:26:37;;;;;;;2.00;1.90;;;19.10;38.70;;;;;;4994683;28;20190;-73
2022/04/19 00:29:04;;;;;;;2.22;2.08;;;19.10;38.70;;;;;;5009809;28;20601;-73
2022/04/19 00:31:31;;;;;;;2.00;1.90;;;19.10;38.80;;;;;;5009848;28;20210;-73
2022/04/19 00:33:59;;;;;;;2.15;2.05;;;19.10;38.90;;;;;;4994802;28;20240;-73
2022/04/19 00:36:28;;;;;;;2.22;2.13;;;19.00;38.80;;;;;;4993462;28;20300;-73
2022/04/19 00:38:56;;;;;;;2.00;1.90;;;19.00;38.70;;;;;;5009547;28;20312;-73
2022/04/19 00:41:23;;;;;;;2.30;2.10;;;19.00;38.80;;;;;;5010070;28;20197;-73
2022/04/19 00:43:50;;;;;;;2.15;1.95;;;19.00;38.80;;;;;;5009363;28;20211;-73
2022/04/19 00:46:17;;;;;;;2.10;2.00;;;18.90;38.80;;;;;;4993134;28;20198;-73
2022/04/19 00:48:45;;;;;;;2.40;2.20;;;19.00;39.00;;;;;;5009527;28;20200;-73
2022/04/19 00:51:13;;;;;;;2.30;2.10;;;18.90;38.90;;;;;;4993223;28;20201;-73
2022/04/19 00:53:42;;;;;;;2.10;2.00;;;18.90;38.90;;;;;;4993289;28;20194;-73
2022/04/19 00:56:09;;;;;;;2.42;2.13;;;18.90;38.90;;;;;;5009307;28;20201;-73
2022/04/19 00:58:36;;;;;;;2.17;2.08;;;18.90;38.90;;;;;;5009245;28;20197;-73
2022/04/19 01:01:03;;;;;;;2.30;2.10;;;18.90;38.80;;;;;;4992983;28;20190;-73
2022/04/19 01:03:30;;;;;;;2.45;2.20;;;18.90;39.60;;;;;;5009102;28;20224;-74
2022/04/19 01:06:01;;;;;;;2.08;1.90;;;18.80;38.80;;;;;;5009530;28;20208;-73
2022/04/19 01:08:30;;;;;;;2.38;2.17;;;18.80;38.90;;;;;;5009111;28;20197;-73
2022/04/19 01:13:51;;;;;;;2.03;1.90;;;18.80;38.90;;;;;;4992535;28;20194;-73
2022/04/19 01:16:18;;;;;;;2.38;2.20;;;18.80;38.80;;;;;;4994295;28;20186;-73
2022/04/19 01:18:45;;;;;;;2.50;2.30;;;18.70;38.80;;;;;;5009150;28;20549;-73
2022/04/19 01:21:12;;;;;;;2.45;2.20;;;18.80;39.00;;;;;;5009153;28;20198;-73
2022/04/19 01:23:42;;;;;;;2.05;1.92;;;18.70;39.00;;;;;;5009132;28;20203;-73
2022/04/19 01:26:10;;;;;;;2.22;2.13;;;18.70;39.00;;;;;;5009076;28;20304;-73
2022/04/19 01:28:39;;;;;;;2.20;2.00;;;18.70;39.00;;;;;;5009043;28;20201;-73
2022/04/19 01:31:09;;;;;;;2.00;1.90;;;18.70;39.00;;;;;;5008919;28;20687;-73
2022/04/19 01:33:44;;;;;;;2.50;2.30;;;18.70;39.00;;;;;;5009057;28;20221;-73
2022/04/19 01:36:12;;;;;;;2.20;2.10;;;18.70;39.10;;;;;;4992752;28;20204;-73
2022/04/19 01:38:45;;;;;;;2.63;2.42;;;18.60;39.60;;;;;;4992956;28;20197;-73
2022/04/19 01:41:15;;;;;;;2.42;2.22;;;18.60;39.00;;;;;;5009530;28;20204;-73
2022/04/19 01:43:48;;;;;;;2.40;2.20;;;18.60;39.00;;;;;;5008980;28;20209;-74
2022/04/19 01:46:16;;;;;;;2.70;2.50;;;18.60;39.00;;;;;;4992842;28;20200;-73
2022/04/19 01:48:44;;;;;;;2.10;1.90;;;18.60;39.10;;;;;;4992727;28;20198;-73
2022/04/19 01:51:14;;;;;;;2.40;2.30;;;18.60;39.20;;;;;;5008995;28;20198;-73
2022/04/19 01:53:41;;;;;;;2.42;2.22;;;18.50;39.30;;;;;;5008911;28;20190;-73
2022/04/19 01:56:10;;;;;;;2.30;2.15;;;18.60;39.20;;;;;;5008751;28;20705;-73
2022/04/19 01:59:04;;;;;;;2.65;2.45;;;18.50;39.20;;;;;;4993608;28;20193;-73
2022/04/19 02:01:51;;;;;;;2.40;2.20;;;18.50;39.20;;;;;;5008975;28;20212;-73
2022/04/19 02:04:19;;;;;;;2.33;2.20;;;18.50;39.30;;;;;;5008630;28;20225;-73
2022/04/19 02:06:46;;;;;;;2.47;2.28;;;18.50;39.20;;;;;;5008816;28;20324;-73
2022/04/19 02:09:13;;;;;;;2.70;2.50;;;18.50;39.20;;;;;;4992662;28;20239;-73
2022/04/19 02:11:43;;;;;;;2.20;2.10;;;18.50;39.40;;;;;;4993282;28;20206;-73
2022/04/19 02:14:22;;;;;;;2.60;2.40;;;18.50;39.30;;;;;;5008884;28;20213;-73
2022/04/19 02:16:53;;;;;;;2.45;2.25;;;18.40;39.30;;;;;;5126965;22;20235;-70
2022/04/19 02:19:21;;;;;;;2.40;2.15;;;18.40;39.30;;;;;;5031663;28;20219;-71
2022/04/19 02:21:48;;;;;;;2.60;2.40;;;18.40;39.20;;;;;;5015302;28;20196;-71
2022/04/19 02:24:15;;;;;;;2.58;2.38;;;18.40;39.30;;;;;;5017086;28;20220;-71
2022/04/19 02:26:45;;;;;;;2.42;2.22;;;18.40;39.40;;;;;;5018801;28;20238;-71
2022/04/19 02:29:15;;;;;;;2.45;2.25;;;18.40;39.40;;;;;;5018572;28;20670;-72
2022/04/19 02:31:46;;;;;;;3.00;2.40;;;18.40;39.40;;;;;;5018561;28;20286;-71
2022/04/19 02:34:18;;;;;;;2.40;2.30;;;18.40;39.40;;;;;;5018438;28;20297;-72
2022/04/19 02:36:46;;;;;;;2.45;2.25;;;18.40;39.40;;;;;;5035098;28;20283;-72
2022/04/19 02:39:13;;;;;;;2.60;2.40;;;18.30;39.30;;;;;;5034997;28;20200;-72
2022/04/19 02:41:40;;;;;;;2.58;2.38;;;18.30;39.30;;;;;;5035171;28;20260;-72
2022/04/19 02:44:10;;;;;;;2.50;2.30;;;18.30;39.40;;;;;;5018795;28;20721;-71
2022/04/19 02:46:39;;;;;;;2.40;2.20;;;18.30;39.40;;;;;;5035391;28;20200;-71
2022/04/19 02:49:08;;;;;;;2.40;2.20;;;18.30;39.30;;;;;;5034908;28;20689;-71
2022/04/19 02:51:36;;;;;;;2.47;2.28;;;18.30;39.30;;;;;;5035932;28;20248;-71
2022/04/19 02:54:03;;;;;;;2.30;2.10;;;18.30;39.30;;;;;;5018230;28;20211;-71
2022/04/19 02:56:30;;;;;;;2.50;2.30;;;18.30;39.30;;;;;;5034480;28;20361;-72
2022/04/19 02:58:59;;;;;;;2.53;2.33;;;18.30;39.40;;;;;;5034386;28;20195;-71
2022/04/19 03:01:29;;;;;;;2.70;2.50;;;18.30;39.30;;;;;;5034385;28;20351;-71
2022/04/19 03:03:57;;;;;;;2.53;2.33;;;18.20;39.20;;;;;;5017863;28;20685;-71
2022/04/19 03:06:24;;;;;;;2.53;2.33;;;18.20;39.30;;;;;;5034748;28;20206;-71
2022/04/19 03:08:51;;;;;;;2.70;2.50;;;18.20;39.30;;;;;;5018354;28;20207;-70
2022/04/19 03:11:19;;;;;;;2.50;2.30;;;18.20;39.30;;;;;;5017882;28;20202;-72
2022/04/19 03:13:46;;;;;;;2.88;2.55;;;18.20;39.30;;;;;;5033893;28;20287;-72
2022/04/19 03:16:16;;;;;;;2.67;2.47;;;18.20;39.30;;;;;;5017817;28;20203;-72
2022/04/19 03:18:46;;;;;;;2.53;2.33;;;18.20;39.20;;;;;;5017730;28;20283;-71
2022/04/19 03:21:14;;;;;;;2.40;2.20;;;18.10;39.30;;;;;;5034041;28;20299;-71
2022/04/19 03:29:11;;;;;;;2.45;2.25;;;18.10;39.30;;;;;;5017398;28;20282;-72
2022/04/19 03:31:38;;;;;;;2.80;2.55;;;18.10;39.40;;;;;;5034759;28;20196;-72
2022/04/19 03:34:07;;;;;;;2.78;2.58;;;18.10;39.30;;;;;;5017692;28;20212;-72
2022/04/19 03:36:35;;;;;;;2.72;2.53;;;18.10;39.30;;;;;;5034471;28;20200;-72
2022/04/19 03:39:02;;;;;;;2.55;2.40;;;18.10;39.30;;;;;;5018327;28;20203;-71
2022/04/19 03:41:48;;;;;;;2.90;2.70;;;18.10;39.20;;;;;;5033987;28;20223;-71
2022/04/19 03:44:15;;;;;;;2.60;2.40;;;18.10;39.30;;;;;;5035084;28;20287;-72
2022/04/19 03:49:27;;;;;;;2.75;2.55;;;18.20;39.40;;;;;;5009348;28;20207;-71
2022/04/19 03:51:54;;;;;;;2.50;2.30;;;18.10;39.10;;;;;;5036370;28;20277;-72
2022/04/19 03:54:22;;;;;;;2.60;2.40;;;18.20;39.20;;;;;;5017534;28;20216;-72
2022/04/19 03:56:49;;;;;;;2.40;2.20;;;18.10;39.20;;;;;;5017307;28;20254;-72
2022/04/19 03:59:16;;;;;;;2.90;2.70;;;18.10;39.20;;;;;;5017379;28;20196;-72
2022/04/19 04:01:43;;;;;;;2.20;2.10;;;18.10;39.10;;;;;;5017304;28;20216;-71
2022/04/19 04:04:11;;;;;;;2.80;2.60;;;18.10;39.20;;;;;;5017989;28;20216;-72
2022/04/19 04:06:40;;;;;;;2.60;2.40;;;18.10;39.20;;;;;;5033753;28;20282;-72
2022/04/19 04:09:08;;;;;;;2.60;2.40;;;18.10;39.10;;;;;;5017298;28;20200;-72
2022/04/19 04:11:36;;;;;;;3.20;2.97;;;18.10;39.10;;;;;;5017303;28;20192;-71
2022/04/19 04:21:59;;;;;;;2.83;2.63;;;18.20;38.80;;;;;;5166901;23;20288;-71
2022/04/19 04:26:59;;;;;;;3.00;2.75;;;18.20;39.50;;;;;;5159291;22;20224;-72
2022/04/19 04:29:30;;;;;;;3.00;2.75;;;18.30;39.30;;;;;;5030049;28;20593;-73
2022/04/19 04:31:58;;;;;;;2.95;2.70;;;18.30;40.50;;;;;;5013387;28;20736;-71
2022/04/19 04:34:25;;;;;;;3.03;2.80;;;18.20;40.50;;;;;;5029882;28;20220;-72
2022/04/19 04:36:52;;;;;;;2.63;2.42;;;18.30;40.90;;;;;;5089543;23;20307;-70
2022/04/19 04:39:23;;;;;;;3.72;2.88;;;18.20;40.30;;;;;;5170514;23;20327;-71
2022/04/19 04:42:09;;;;;;;3.00;2.50;;;18.30;40.70;;;;;;5014738;28;20240;-71
2022/04/19 04:44:36;;;;;;;3.15;2.95;;;18.30;40.50;;;;;;5013103;28;20271;-71
2022/04/19 04:49:50;;;;;;;4.43;2.83;;;18.30;40.80;;;;;;5032761;28;20563;-70
2022/04/19 04:52:20;;;;;;;3.10;2.80;;;18.30;41.80;;;;;;5032660;28;20674;-70
2022/04/19 04:54:51;;;;;;;3.38;2.88;;;18.40;40.70;;;;;;5033717;28;20192;-70
2022/04/19 04:57:29;;;;;;;2.75;2.55;;;18.40;41.30;;;;;;5138163;23;20239;-70
2022/04/19 04:59:57;;;;;;;2.70;2.50;;;18.40;40.60;;;;;;5032383;28;20195;-70
2022/04/19 05:02:26;;;;;;;3.17;2.42;;;18.40;40.00;;;;;;5031699;28;20223;-70
2022/04/19 05:04:54;;;;;;;2.83;2.63;;;18.50;40.00;;;;;;5165530;23;20713;-70
2022/04/19 05:07:21;;;;;;;2.80;2.60;;;18.50;40.00;;;;;;5028280;28;20213;-71
2022/04/19 05:09:57;;;;;;;3.28;2.97;;;18.50;40.00;;;;;;5012339;28;20207;-71
2022/04/19 05:12:24;;;;;;;2.83;2.47;;;18.50;39.40;;;;;;5011867;28;20251;-70
2022/04/19 05:14:51;;;;;;;2.80;2.60;;;18.60;39.90;;;;;;5113542;22;20242;-71
2022/04/19 05:17:18;;;;;;;2.80;2.60;;;18.50;40.00;;;;;;5032379;28;20215;-71
2022/04/19 05:19:45;;;;;;;2.83;2.63;;;18.60;40.10;;;;;;5031721;28;20203;-71
2022/04/19 05:22:13;;;;;;;2.80;2.60;;;18.60;40.10;;;;;;5015321;28;20246;-71
2022/04/19 05:24:40;;;;;;;3.78;2.65;;;18.70;40.20;;;;;;5016321;28;20196;-69
2022/04/19 05:27:09;;;;;;;3.10;2.78;;;18.70;40.10;;;;;;5032154;28;20206;-71
2022/04/19 05:29:37;;;;;;;2.95;2.75;;;18.80;39.90;;;;;;5032200;28;20229;-71
2022/04/19 05:32:05;;;;;;;3.05;2.85;;;18.80;39.40;;;;;;5015924;28;20196;-71
2022/04/19 05:34:32;;;;;;;3.08;2.60;;;18.90;39.30;;;;;;5032390;28;20198;-71
2022/04/19 05:37:00;;;;;;;3.63;2.95;;;18.90;39.40;;;;;;5015739;28;20200;-70
2022/04/19 05:39:26;;;;;;;2.80;2.60;;;19.00;39.20;;;;;;5015894;28;20279;-71
2022/04/19 05:41:54;;;;;;;2.92;2.63;;;19.00;39.20;;;;;;5015669;28;20226;-70
2022/04/19 05:44:23;;;;;;;3.15;2.85;;;19.00;38.90;;;;;;5032035;28;20216;-71
2022/04/19 05:46:51;;;;;;;3.67;2.60;;;19.10;38.80;;;;;;5015359;28;20258;-69
2022/04/19 05:51:54;;;;;;;3.00;2.70;;;19.40;38.30;;;;;;4992493;28;20316;-69
2022/04/19 05:54:21;;;;;;;3.30;3.00;;;19.50;37.90;;;;;;4993792;28;20213;-68
2022/04/19 05:56:56;;;;;;;3.05;2.75;;;19.70;37.70;;;;;;4992783;28;20203;-69
2022/04/19 05:59:24;;;;;;;3.10;2.75;;;19.90;37.30;;;;;;4978236;28;20730;-69
2022/04/19 06:04:54;;;;;;;2.97;2.78;;;20.30;36.70;;;;;;4979726;28;20209;-69
2022/04/19 06:07:24;;;;;;;3.22;2.83;;;20.50;36.40;;;;;;4980541;28;20595;-69
2022/04/19 06:09:52;;;;;;;3.03;2.60;;;20.70;36.10;;;;;;4995894;28;20275;-70
2022/04/19 06:12:19;;;;;;;3.22;2.88;;;20.90;35.80;;;;;;4979613;28;20205;-70
2022/04/19 06:14:52;;;;;;;3.00;2.70;;;21.10;36.40;;;;;;4995896;28;20194;-70
2022/04/19 06:17:25;;;;;;;3.08;2.63;;;21.20;35.50;;;;;;4995783;28;20225;-69
2022/04/19 06:19:52;;;;;;;3.42;2.97;;;21.40;35.30;;;;;;4996655;28;20228;-69
2022/04/19 06:22:19;;;;;;;4.07;2.83;;;21.50;34.90;;;;;;4996059;28;20213;-70
2022/04/19 06:24:57;;;;;;;2.80;2.60;;;21.60;34.70;;;;;;4996119;28;20193;-70
2022/04/19 06:27:25;;;;;;;5.35;2.92;;;21.80;34.40;;;;;;4995913;28;20716;-68
2022/04/19 06:29:56;;;;;;;3.20;3.00;;;22.00;34.20;;;;;;4979474;28;20193;-70
2022/04/19 06:32:24;;;;;;;3.20;2.90;;;22.10;33.80;;;;;;4995657;28;20198;-69
2022/04/19 06:34:54;;;;;;;2.97;2.50;;;22.20;33.70;;;;;;4995835;28;20553;-69
2022/04/19 06:37:23;;;;;;;4.05;2.80;;;22.30;33.20;;;;;;4995447;28;20260;-67
2022/04/19 06:40:07;;;;;;;2.95;2.75;;;22.40;32.90;;;;;;4979418;28;20268;-68
2022/04/19 06:42:35;;;;;;;3.65;2.80;;;22.50;32.90;;;;;;4979905;28;20243;-69
2022/04/19 06:45:16;;;;;;;3.10;2.80;;;22.60;32.50;;;;;;4996930;28;20178;-69
2022/04/19 06:47:57;;;;;;;3.25;2.95;;;22.60;32.60;;;;;;4995480;28;20328;-68
2022/04/19 06:50:25;;;;;;;3.47;3.17;;;22.80;32.50;;;;;;4995256;28;20232;-68
2022/04/19 06:52:54;;;;;;;3.35;3.05;;;22.80;32.30;;;;;;4995302;28;20216;-68
2022/04/19 06:55:48;;;;;;;3.00;2.70;;;22.90;32.30;;;;;;4996061;28;20193;-68
2022/04/19 06:58:15;;;;;;;3.45;3.15;;;23.00;32.10;;;;;;4995017;28;20225;-69
2022/04/19 07:00:45;;;;;;;4.22;2.97;;;23.10;32.00;;;;;;4994997;28;20255;-68
2022/04/19 07:03:12;;;;;;;2.53;2.33;;;23.10;32.00;;;;;;4995090;28;20207;-68
2022/04/19 07:06:00;;;;;;;3.05;2.85;;;23.10;31.70;;;;;;4995699;28;20264;-68
2022/04/19 07:08:27;;;;;;;3.10;2.90;;;23.30;31.90;;;;;;4995122;28;20304;-68
2022/04/19 07:10:55;;;;;;;2.80;2.60;;;23.30;32.40;;;;;;4994964;28;20579;-69
2022/04/19 07:13:57;;;;;;;3.08;2.78;;;23.40;31.70;;;;;;4987252;28;20201;-68
2022/04/19 07:16:46;;;;;;;3.25;2.80;;;23.50;31.70;;;;;;4965920;28;20201;-68
2022/04/19 07:19:16;;;;;;;2.80;2.60;;;23.60;31.40;;;;;;4995141;28;20267;-68
2022/04/19 07:27:12;;;;;;;2.60;2.40;;;23.90;31.10;;;;;;4995024;28;20197;-67
2022/04/19 07:29:40;;;;;;;2.85;2.65;;;24.00;31.10;;;;;;4978172;28;20193;-68
2022/04/19 07:32:09;;;;;;;3.17;2.58;;;24.00;30.90;;;;;;4994301;28;20197;-68
2022/04/19 07:34:59;;;;;;;3.08;2.78;;;24.10;30.80;;;;;;4978763;28;20190;-68
2022/04/19 07:37:26;;;;;;;2.83;2.60;;;24.10;30.50;;;;;;4994437;28;20734;-69
2022/04/19 07:39:54;;;;;;;2.60;2.40;;;24.20;30.60;;;;;;4994524;28;20197;-68
2022/04/19 07:42:22;;;;;;;2.50;2.30;;;24.20;30.60;;;;;;4994168;28;20220;-68
2022/04/19 07:44:51;;;;;;;2.70;2.50;;;24.20;30.60;;;;;;4994069;28;20344;-69
2022/04/19 07:47:21;;;;;;;2.65;2.45;;;24.30;31.30;;;;;;4994178;28;20738;-68
2022/04/19 07:49:49;;;;;;;2.60;2.40;;;24.30;30.70;;;;;;4993995;28;20202;-68
2022/04/19 07:52:17;;;;;;;2.50;2.30;;;24.30;30.60;;;;;;4977884;28;20254;-68
2022/04/19 07:54:44;;;;;;;2.30;2.10;;;24.40;30.50;;;;;;4994075;28;20284;-68
2022/04/19 07:57:11;;;;;;;2.63;2.42;;;24.50;30.50;;;;;;4994099;28;20611;-68
2022/04/19 07:59:38;;;;;;;2.72;2.25;;;24.50;30.40;;;;;;4995495;28;20236;-68
2022/04/19 08:02:05;;;;;;;2.95;2.63;;;24.60;30.30;;;;;;4978367;28;20228;-69
2022/04/19 08:04:34;;;;;;;2.50;2.30;;;24.60;30.30;;;;;;4978097;28;20233;-69
2022/04/19 08:07:01;;;;;;;2.50;2.30;;;24.70;30.10;;;;;;4993978;28;20203;-68
2022/04/19 08:09:28;;;;;;;2.60;2.40;;;24.70;30.00;;;;;;4994158;28;20758;-69
2022/04/19 08:11:55;;;;;;;2.90;2.40;;;24.80;30.00;;;;;;4977500;28;20190;-69
2022/04/19 08:14:22;;;;;;;2.30;2.10;;;24.80;30.00;;;;;;4994483;28;20284;-68
2022/04/19 08:16:49;;;;;;;3.67;2.60;;;24.80;30.00;;;;;;4993821;28;20197;-69
2022/04/19 08:19:16;;;;;;;2.50;2.30;;;24.70;30.00;;;;;;4977304;28;20217;-68
2022/04/19 08:21:46;;;;;;;2.25;2.05;;;24.70;30.20;;;;;;4977096;28;20300;-69
2022/04/19 08:24:14;;;;;;;2.55;2.30;;;24.70;30.20;;;;;;4993627;28;20248;-69
2022/04/19 08:26:41;;;;;;;2.40;2.20;;;24.70;30.20;;;;;;4993785;28;20193;-69
2022/04/19 08:29:08;;;;;;;2.30;2.10;;;24.80;30.10;;;;;;4993561;28;20718;-69
2022/04/19 08:31:36;;;;;;;2.40;2.20;;;24.90;30.00;;;;;;4994916;28;20212;-69
2022/04/19 08:34:04;;;;;;;2.10;2.00;;;25.00;30.00;;;;;;4993601;28;20193;-69
2022/04/19 08:36:31;;;;;;;2.28;2.08;;;25.10;29.90;;;;;;4977476;28;20263;-68
2022/04/19 08:39:00;;;;;;;2.28;2.08;;;25.20;29.90;;;;;;4977333;28;20316;-68
2022/04/19 08:41:27;;;;;;;2.60;2.40;;;25.20;29.80;;;;;;4993813;28;20651;-69
2022/04/19 08:43:55;;;;;;;2.50;2.30;;;25.20;29.80;;;;;;4993618;28;20198;-69
2022/04/19 08:46:23;;;;;;;2.90;2.30;;;25.30;29.70;;;;;;4993666;28;20209;-68
2022/04/19 08:48:49;;;;;;;2.45;2.20;;;25.40;29.60;;;;;;4993999;28;20228;-69
2022/04/19 08:51:16;;;;;;;2.20;2.10;;;25.40;29.50;;;;;;4994288;28;20200;-69
2022/04/19 08:59:28;;;;;;;2.47;2.28;;;25.60;29.50;;;;;;4943950;28;20201;-69
2022/04/19 09:01:56;;;;;;;2.60;2.40;;;25.60;29.40;;;;;;4994850;28;20201;-69
2022/04/19 09:04:24;;;;;;;2.50;2.30;;;25.60;29.40;;;;;;4976865;28;20679;-69
2022/04/19 09:06:52;;;;;;;2.53;2.33;;;25.70;29.30;;;;;;4994353;28;20185;-69
2022/04/19 09:09:21;;;;;;;2.25;2.05;;;25.70;29.30;;;;;;4994521;28;20185;-69
2022/04/19 09:11:50;;;;;;;2.30;2.10;;;25.70;29.30;;;;;;4993515;28;20201;-69
2022/04/19 09:14:17;;;;;;;2.38;2.22;;;25.80;29.30;;;;;;4993004;28;20644;-69
2022/04/19 09:16:44;;;;;;;2.28;2.10;;;25.70;29.20;;;;;;4993033;28;20255;-68
2022/04/19 09:19:12;;;;;;;2.38;2.17;;;25.80;29.20;;;;;;4993072;28;20243;-69
2022/04/19 09:21:40;;;;;;;2.42;2.22;;;25.90;29.20;;;;;;4976790;28;20695;-69
2022/04/19 09:24:17;;;;;;;2.20;2.10;;;25.90;29.10;;;;;;4993487;28;20252;-69
2022/04/19 09:26:44;;;;;;;2.30;2.10;;;25.90;29.00;;;;;;4976764;28;20205;-69
2022/04/19 09:29:21;;;;;;;2.30;2.10;;;25.90;28.90;;;;;;4976455;28;20672;-69
2022/04/19 09:31:50;;;;;;;2.33;2.10;;;26.00;28.90;;;;;;4992724;28;20189;-69
2022/04/19 09:34:24;;;;;;;2.30;2.10;;;26.00;29.00;;;;;;4996348;28;20623;-69
2022/04/19 09:36:55;;;;;;;2.30;2.10;;;26.00;29.00;;;;;;4998035;28;20651;-69
2022/04/19 09:39:28;;;;;;;2.17;2.08;;;26.00;28.90;;;;;;4980462;28;20296;-68
2022/04/19 09:42:02;;;;;;;2.40;2.20;;;26.00;28.90;;;;;;4980712;28;20595;-68
2022/04/19 09:44:31;;;;;;;2.20;2.05;;;26.00;28.90;;;;;;4998453;28;20200;-68
2022/04/19 09:47:03;;;;;;;2.25;2.13;;;26.00;28.90;;;;;;4996603;28;20267;-69
2022/04/19 09:49:44;;;;;;;3.60;2.17;;;26.00;28.90;;;;;;4996153;28;20676;-69
2022/04/19 09:52:14;;;;;;;2.33;2.13;;;26.00;29.00;;;;;;4997476;28;20632;-68
2022/04/19 09:54:41;;;;;;;2.65;2.20;;;26.00;29.00;;;;;;4980016;28;20610;-67
2022/04/19 09:57:09;;;;;;;2.53;2.30;;;26.00;28.90;;;;;;4996244;28;20252;-69
2022/04/19 09:59:43;;;;;;;2.20;2.00;;;26.00;29.00;;;;;;4997536;28;20663;-69
2022/04/19 10:08:14;;;;;;;2.00;1.88;;;25.90;29.00;;;;;;4940546;29;20226;-69
2022/04/19 10:10:41;;;;;;;2.20;2.00;;;25.90;29.00;;;;;;4940578;29;20201;-69
2022/04/19 10:13:09;;;;;;;2.00;1.90;;;25.90;28.90;;;;;;4980622;28;20216;-68
2022/04/19 10:15:39;;;;;;;2.10;1.90;;;25.90;28.90;;;;;;4979953;28;20228;-70
2022/04/19 10:18:07;;;;;;;1.90;1.80;;;25.90;28.90;;;;;;4996940;28;20300;-69
2022/04/19 10:20:37;;;;;;;1.90;1.80;;;25.90;29.00;;;;;;4997169;28;20221;-68
2022/04/19 10:23:05;;;;;;;2.40;2.20;;;25.90;29.00;;;;;;4997168;28;20205;-68
2022/04/19 10:25:40;;;;;;;2.10;2.00;;;25.80;29.00;;;;;;4997248;28;20219;-69
2022/04/19 10:28:08;;;;;;;2.22;2.03;;;25.80;29.10;;;;;;4997021;28;20201;-69
2022/04/19 10:30:38;;;;;;;2.13;2.03;;;25.80;29.10;;;;;;4996963;28;20181;-70
2022/04/19 10:33:44;;;;;;;2.13;1.92;;;25.70;29.10;;;;;;4995828;28;20201;-69
2022/04/19 10:36:12;;;;;;;2.03;1.90;;;25.70;29.30;;;;;;4979311;28;20263;-68
2022/04/19 10:38:40;;;;;;;2.10;2.00;;;25.60;29.30;;;;;;4995290;28;20221;-69
2022/04/19 10:41:07;;;;;;;2.30;2.10;;;25.60;29.30;;;;;;4979282;28;20194;-68
2022/04/19 10:43:34;;;;;;;2.50;2.30;;;25.60;29.40;;;;;;4995066;28;20217;-69
2022/04/19 10:46:21;;;;;;;2.17;2.08;;;25.60;29.40;;;;;;4994526;28;20200;-68
2022/04/19 10:49:22;;;;;;;2.10;1.90;;;25.60;29.40;;;;;;4996589;28;20309;-69
2022/04/19 10:51:50;;;;;;;2.08;1.98;;;25.60;29.40;;;;;;4994867;28;20215;-69
2022/04/19 10:54:17;;;;;;;1.83;1.73;;;25.60;29.40;;;;;;4995221;28;20672;-68
2022/04/19 10:58:05;;;;;;;2.10;1.90;;;25.60;29.40;;;;;;4996420;28;20215;-69
2022/04/19 11:00:20;;;;;;;2.00;1.90;;;25.60;29.40;;;;;;4996063;28;20197;-69
2022/04/19 11:02:59;;;;;;;1.90;1.80;;;25.50;29.40;;;;;;4996300;28;20202;-68
2022/04/19 11:05:41;;;;;;;2.00;1.90;;;25.50;29.40;;;;;;4978626;28;20197;-69
2022/04/19 11:08:33;;;;;;;2.10;1.90;;;25.50;29.50;;;;;;4978598;28;20217;-69
2022/04/19 11:11:22;;;;;;;1.98;1.83;;;25.40;29.60;;;;;;4978642;28;20197;-68
2022/04/19 11:14:46;;;;;;;2.20;2.00;;;25.30;29.70;;;;;;4978378;28;20198;-69
2022/04/19 11:17:29;;;;;;;1.98;1.83;;;25.30;29.80;;;;;;4994487;28;20869;-69
2022/04/19 11:19:58;;;;;;;2.00;1.90;;;25.20;29.80;;;;;;4978540;28;20194;-69
2022/04/19 11:22:29;;;;;;;2.00;1.90;;;25.10;29.90;;;;;;4978666;28;20571;-69
2022/04/19 11:25:00;;;;;;;2.10;2.00;;;25.10;30.00;;;;;;4996089;28;20209;-69
2022/04/19 11:28:17;;;;;;;2.15;2.00;;;25.10;30.00;;;;;;4995856;28;20213;-69
2022/04/19 11:30:45;;;;;;;1.92;1.80;;;25.00;30.00;;;;;;4995915;28;20186;-69
2022/04/19 11:33:12;;;;;;;1.95;1.75;;;25.00;30.10;;;;;;4996028;28;20198;-69
2022/04/19 11:35:40;;;;;;;2.20;2.00;;;24.90;30.20;;;;;;4978258;28;20204;-70
2022/04/19 11:38:09;;;;;;;1.98;1.80;;;24.90;30.30;;;;;;4995553;28;20205;-70
2022/04/19 11:49:03;;;;;;;2.10;2.00;;;24.80;30.50;;;;;;4977874;28;20656;-69
2022/04/19 11:51:35;;;;;;;1.80;1.70;;;24.80;31.30;;;;;;4995296;28;20201;-69
2022/04/19 11:54:03;;;;;;;1.88;1.77;;;24.80;30.70;;;;;;4995609;28;20178;-69
2022/04/19 11:56:30;;;;;;;2.10;1.90;;;24.80;30.70;;;;;;4976854;28;20197;-69
2022/04/19 11:58:58;;;;;;;1.75;1.65;;;24.70;30.70;;;;;;4994047;28;20248;-69
2022/04/19 12:01:25;;;;;;;1.77;1.67;;;24.70;30.70;;;;;;4999618;23;20235;-62
2022/04/19 12:03:52;;;;;;;1.80;1.70;;;24.70;30.90;;;;;;5018014;28;20224;-62
2022/04/19 12:06:20;;;;;;;2.20;2.10;;;24.70;30.70;;;;;;5016206;28;20299;-62
2022/04/19 12:08:50;;;;;;;1.80;1.60;;;24.70;30.70;;;;;;5035761;28;20203;-62
2022/04/19 12:11:19;;;;;;;1.73;1.63;;;24.70;30.70;;;;;;5034224;28;20258;-62
2022/04/19 12:13:48;;;;;;;1.90;1.80;;;24.70;31.00;;;;;;5034383;28;20188;-62
2022/04/19 12:16:29;;;;;;;1.80;1.70;;;24.70;31.00;;;;;;5034004;28;20196;-62
2022/04/19 12:18:58;;;;;;;1.90;1.80;;;24.70;31.00;;;;;;5035307;28;20203;-62
2022/04/19 12:21:38;;;;;;;1.88;1.77;;;24.70;31.00;;;;;;5034961;28;20192;-62
2022/04/19 12:24:09;;;;;;;1.85;1.73;;;24.60;30.90;;;;;;5033846;28;20639;-62
2022/04/19 12:26:37;;;;;;;1.90;1.80;;;24.60;30.90;;;;;;5033530;28;20223;-62
2022/04/19 12:29:12;;;;;;;1.80;1.70;;;24.60;30.90;;;;;;5033426;28;20207;-62
2022/04/19 12:31:40;;;;;;;1.90;1.80;;;24.60;30.90;;;;;;5033360;28;20694;-62
2022/04/19 12:34:08;;;;;;;1.70;1.60;;;24.60;30.90;;;;;;5033224;28;20195;-62
2022/04/19 12:36:45;;;;;;;1.80;1.70;;;24.60;31.00;;;;;;5034829;28;20222;-62
2022/04/19 12:39:14;;;;;;;1.88;1.77;;;24.60;30.90;;;;;;5033533;28;20196;-62
2022/04/19 12:41:43;;;;;;;1.95;1.77;;;24.60;31.00;;;;;;5034739;28;20192;-62
2022/04/19 12:44:11;;;;;;;2.00;1.90;;;24.60;31.00;;;;;;5032902;28;20299;-62
2022/04/19 12:46:42;;;;;;;1.67;1.58;;;24.60;31.10;;;;;;5034161;28;20234;-62
2022/04/19 12:49:19;;;;;;;2.00;1.90;;;24.60;30.90;;;;;;5032780;28;20200;-62
2022/04/19 12:51:58;;;;;;;1.90;1.80;;;24.60;30.90;;;;;;5033758;28;20203;-63
2022/04/19 12:54:28;;;;;;;1.80;1.70;;;24.50;31.10;;;;;;5034154;28;20192;-62
2022/04/19 13:00:36;;;;;;;1.70;1.60;;;24.60;31.10;;;;;;5034372;28;20514;-62
2022/04/19 13:03:03;;;;;;;1.80;1.70;;;24.50;31.30;;;;;;5032531;28;20223;-62
2022/04/19 13:13:42;;;;;;;1.77;1.67;;;24.50;31.60;;;;;;5033181;28;20196;-62
2022/04/19 13:16:10;;;;;;;1.70;1.60;;;24.50;31.60;;;;;;5032853;28;20193;-62
2022/04/19 13:19:02;;;;;;;1.90;1.80;;;24.40;31.60;;;;;;5032897;28;20698;-62
2022/04/19 13:21:55;;;;;;;3.08;1.90;;;24.40;31.50;;;;;;5034456;28;20187;-62
2022/04/19 13:24:22;;;;;;;1.88;1.77;;;24.40;31.60;;;;;;5034427;28;20231;-62
2022/04/19 13:26:50;;;;;;;1.88;1.77;;;24.40;31.30;;;;;;5033552;28;20207;-62
2022/04/19 13:29:17;;;;;;;1.90;1.80;;;24.40;31.50;;;;;;5032516;28;20273;-62
2022/04/19 13:31:45;;;;;;;1.95;1.80;;;24.30;31.40;;;;;;5034148;28;20609;-63
2022/04/19 13:34:12;;;;;;;2.03;1.92;;;24.30;31.50;;;;;;5034761;28;20191;-64
2022/04/19 13:36:40;;;;;;;1.98;1.88;;;24.30;31.10;;;;;;5032591;28;20269;-62
2022/04/19 13:39:07;;;;;;;2.53;1.80;;;24.30;31.10;;;;;;5032647;28;20269;-63
2022/04/19 13:41:36;;;;;;;1.98;1.88;;;24.30;31.20;;;;;;5034206;28;20190;-63
2022/04/19 13:44:06;;;;;;;2.30;2.20;;;24.30;31.50;;;;;;5033909;28;20243;-63
2022/04/19 13:46:33;;;;;;;1.98;1.88;;;24.30;31.10;;;;;;5033972;28;20246;-63
2022/04/19 13:49:00;;;;;;;2.00;1.80;;;24.20;31.20;;;;;;5033900;28;20302;-62
2022/04/19 13:51:27;;;;;;;2.00;1.83;;;24.20;31.40;;;;;;5032818;28;20606;-62
2022/04/19 13:53:55;;;;;;;1.95;1.85;;;24.20;31.50;;;;;;5035055;28;20675;-62
2022/04/19 13:56:22;;;;;;;2.17;1.98;;;24.20;31.30;;;;;;5034030;28;20192;-62
2022/04/19 13:58:49;;;;;;;1.80;1.70;;;24.10;31.00;;;;;;5032970;28;20196;-63
2022/04/19 14:01:18;;;;;;;1.70;1.60;;;24.10;31.60;;;;;;5034247;28;20246;-62
2022/04/19 14:03:45;;;;;;;1.60;1.50;;;24.10;31.90;;;;;;5033705;28;20223;-62
2022/04/19 14:06:13;;;;;;;1.83;1.73;;;24.10;32.20;;;;;;5034497;28;20192;-62
2022/04/19 14:08:40;;;;;;;2.22;2.05;;;24.10;32.20;;;;;;5032896;28;20291;-63
2022/04/19 14:11:07;;;;;;;1.90;1.80;;;24.00;32.10;;;;;;5033661;28;20187;-63
2022/04/19 14:13:34;;;;;;;2.00;1.90;;;24.00;32.50;;;;;;5031936;28;20691;-62